Zortman, Montana
Current Conditions -  °F | °C
As of 8:53 AM on Tuesday 21 Oct 2014 (Local Time) from KHVR Reporting Station
Clear Clear  
Wind Chill: 42°   Ceiling: Unl
Heat Index: 42°   Visibility: 10mi
Dew Point: 38°   Wind: 0mph
Humidity: 85%   Direction: NA
Pressure: 29.63"   Gusts: NA
Location:  47.92°N, 108.53°W
Report Text: KHVR 211453Z AUTO 00000KT 10SM CLR 06/03 A2963 RMK AO2 SLP038 T00560033 58004
Loading
Personal Weather Stations






























Interactive Weather Map
Tropical Storm Tracking
New forecast layout! Learn more

10-Day Weather Forecast

Advertisements
Track Severe Weather on mobile